createdAt,value
2023-01-29T00:01:26.131Z,101523.50
2023-01-29T00:03:34.774Z,101529.25
2023-01-29T00:05:39.043Z,101529.25
2023-01-29T00:07:48.543Z,101518.97
2023-01-29T00:09:54.646Z,101520.97
2023-01-29T00:12:03.647Z,101516.72
2023-01-29T00:14:07.159Z,101515.50
2023-01-29T00:16:09.844Z,101505.31
2023-01-29T00:18:13.752Z,101503.75
2023-01-29T00:20:17.577Z,101497.44
2023-01-29T00:22:19.843Z,101492.56
2023-01-29T00:24:27.912Z,101494.13
2023-01-29T00:26:30.938Z,101497.50
2023-01-29T00:28:35.376Z,101499.91
2023-01-29T00:30:37.799Z,101486.44
2023-01-29T00:32:43.767Z,101487.13
2023-01-29T00:34:54.605Z,101490.44
2023-01-29T00:37:09.163Z,101483.66
2023-01-29T00:39:13.378Z,101475.22
2023-01-29T00:41:35.653Z,101491.69
2023-01-29T00:43:55.896Z,101483.66
2023-01-29T00:46:30.879Z,101473.63
2023-01-29T00:48:38.671Z,101475.06
2023-01-29T00:50:49.356Z,101482.84
2023-01-29T00:52:53.077Z,101471.31
2023-01-29T00:55:05.563Z,101472.44
2023-01-29T00:57:07.538Z,101476.81
2023-01-29T00:59:10.547Z,101466.69
2023-01-29T01:01:14.476Z,101461.38
2023-01-29T01:03:18.092Z,101459.09
2023-01-29T01:05:23.298Z,101460.63
2023-01-29T01:07:36.179Z,101448.09
2023-01-29T01:09:56.765Z,101441.50
2023-01-29T01:11:58.689Z,101440.50
2023-01-29T01:14:02.390Z,101426.91
2023-01-29T01:16:13.025Z,101427.34
2023-01-29T01:18:16.364Z,101419.00
2023-01-29T01:20:18.731Z,101419.84
2023-01-29T01:22:22.084Z,101415.56
2023-01-29T01:24:25.185Z,101412.56
2023-01-29T01:26:31.124Z,101423.44
2023-01-29T01:28:33.127Z,101415.88
2023-01-29T01:30:35.001Z,101412.88
2023-01-29T01:32:43.363Z,101415.88
2023-01-29T01:34:52.479Z,101419.59
2023-01-29T01:36:58.739Z,101416.69
2023-01-29T01:39:00.613Z,101417.34
2023-01-29T01:41:08.330Z,101427.56
2023-01-29T01:43:16.437Z,101419.34
2023-01-29T01:45:31.456Z,101422.75
2023-01-29T01:47:39.608Z,101412.81
2023-01-29T01:49:45.274Z,101418.06
2023-01-29T01:51:50.304Z,101430.31
2023-01-29T01:54:02.279Z,101426.03
2023-01-29T01:56:10.841Z,101431.09
2023-01-29T01:58:21.988Z,101429.13
2023-01-29T02:00:26.325Z,101419.00
2023-01-29T02:02:46.866Z,101408.59
2023-01-29T02:05:09.038Z,101419.09
2023-01-29T02:08:07.961Z,101425.78
2023-01-29T02:10:16.366Z,101426.91
2023-01-29T02:12:19.526Z,101426.13
2023-01-29T02:14:22.384Z,101417.88
2023-01-29T02:16:24.384Z,101417.34
2023-01-29T02:18:26.733Z,101426.41
2023-01-29T02:20:32.121Z,101425.41
2023-01-29T02:23:02.637Z,101426.09
2023-01-29T02:25:36.369Z,101429.25
2023-01-29T02:27:49.149Z,101416.63
2023-01-29T02:30:23.163Z,101416.28
2023-01-29T02:32:33.821Z,101409.44
2023-01-29T02:35:19.628Z,101406.75
2023-01-29T02:37:32.092Z,101399.94
2023-01-29T02:39:41.031Z,101408.72
2023-01-29T02:42:19.128Z,101398.47
2023-01-29T02:44:28.781Z,101397.34
2023-01-29T02:46:37.764Z,101395.72
2023-01-29T02:48:57.948Z,101396.13
2023-01-29T02:51:11.648Z,101391.56
2023-01-29T02:53:22.607Z,101387.47
2023-01-29T02:55:35.621Z,101379.78
2023-01-29T02:57:43.560Z,101385.16
2023-01-29T03:00:26.668Z,101390.41
2023-01-29T03:02:46.172Z,101389.56
2023-01-29T03:05:03.271Z,101387.22
2023-01-29T03:07:37.722Z,101384.84
2023-01-29T03:09:48.773Z,101369.06
2023-01-29T03:11:54.525Z,101376.50
2023-01-29T03:14:04.801Z,101371.63
2023-01-29T03:16:12.674Z,101371.31
2023-01-29T03:18:19.014Z,101370.53
2023-01-29T03:20:26.747Z,101366.22
2023-01-29T03:22:29.519Z,101366.22
2023-01-29T03:25:11.399Z,101377.09
2023-01-29T03:27:35.072Z,101368.47
2023-01-29T03:29:58.930Z,101368.16
2023-01-29T03:32:09.580Z,101370.38
2023-01-29T03:34:34.859Z,101368.16
2023-01-29T03:36:47.478Z,101372.81
2023-01-29T03:38:55.552Z,101367.19
2023-01-29T03:41:12.240Z,101363.03
2023-01-29T03:43:45.917Z,101359.69
2023-01-29T03:46:00.274Z,101368.31
2023-01-29T03:48:06.147Z,101366.25
2023-01-29T03:50:38.610Z,101365.69
2023-01-29T03:52:40.410Z,101365.59
2023-01-29T03:55:12.150Z,101371.41
2023-01-29T03:57:25.968Z,101367.78
2023-01-29T03:59:42.641Z,101363.91
2023-01-29T04:02:01.216Z,101362.63
2023-01-29T04:04:15.336Z,101360.84
2023-01-29T04:06:21.281Z,101359.78
2023-01-29T04:08:30.745Z,101355.56
2023-01-29T04:10:36.339Z,101350.59
2023-01-29T04:13:02.607Z,101347.88
2023-01-29T04:15:09.617Z,101345.31
2023-01-29T04:17:22.387Z,101345.66
2023-01-29T04:19:25.296Z,101341.16
2023-01-29T04:21:32.165Z,101341.91
2023-01-29T04:23:40.070Z,101340.53
2023-01-29T04:25:53.791Z,101340.84
2023-01-29T04:28:01.976Z,101333.72
2023-01-29T04:30:45.261Z,101324.41
2023-01-29T04:33:03.295Z,101334.03
2023-01-29T04:35:29.857Z,101327.69
2023-01-29T04:38:01.617Z,101329.34
2023-01-29T04:40:32.017Z,101319.25
2023-01-29T04:42:47.598Z,101328.50
2023-01-29T04:45:15.236Z,101331.47
2023-01-29T04:47:39.423Z,101331.44
2023-01-29T04:50:10.532Z,101336.09
2023-01-29T04:52:30.589Z,101335.50
2023-01-29T04:55:15.585Z,101324.41
2023-01-29T04:57:32.974Z,101323.88
2023-01-29T04:59:48.657Z,101323.78
2023-01-29T05:01:51.716Z,101311.34
2023-01-29T05:03:55.479Z,101310.13
2023-01-29T05:06:03.425Z,101305.34
2023-01-29T05:08:16.105Z,101299.28
2023-01-29T05:10:21.552Z,101302.75
2023-01-29T05:12:28.319Z,101310.34
2023-01-29T05:14:34.341Z,101310.47
2023-01-29T05:16:43.050Z,101307.78
2023-01-29T05:18:49.284Z,101315.03
2023-01-29T05:21:00.158Z,101311.94
2023-01-29T05:23:04.504Z,101308.81
2023-01-29T05:25:30.030Z,101313.47
2023-01-29T05:27:54.664Z,101307.06
2023-01-29T05:29:58.121Z,101298.34
2023-01-29T05:32:00.314Z,101297.41
2023-01-29T05:34:27.411Z,101302.00
2023-01-29T05:36:31.399Z,101299.56
2023-01-29T05:38:50.497Z,101287.06
2023-01-29T05:40:54.312Z,101282.41
2023-01-29T05:42:56.192Z,101288.19
2023-01-29T05:44:59.139Z,101288.75
2023-01-29T05:47:13.150Z,101291.00
2023-01-29T05:49:18.638Z,101292.81
2023-01-29T05:51:27.927Z,101288.38
2023-01-29T05:53:32.209Z,101281.03
2023-01-29T05:55:34.125Z,101288.00
2023-01-29T05:57:37.043Z,101287.75
2023-01-29T05:59:38.923Z,101278.47
2023-01-29T06:01:40.888Z,101277.13
2023-01-29T06:03:42.857Z,101278.38
2023-01-29T06:05:44.990Z,101268.56
2023-01-29T06:07:55.129Z,101277.34
2023-01-29T06:09:57.004Z,101289.59
2023-01-29T06:11:58.881Z,101294.38
2023-01-29T06:14:00.762Z,101297.16
2023-01-29T06:16:08.817Z,101287.91
2023-01-29T06:18:11.754Z,101295.66
2023-01-29T06:20:17.022Z,101288.88
2023-01-29T06:22:19.039Z,101291.81
2023-01-29T06:24:22.099Z,101296.94
2023-01-29T06:26:35.709Z,101297.63
2023-01-29T06:28:37.637Z,101292.44
2023-01-29T06:30:39.563Z,101291.50
2023-01-29T06:32:41.630Z,101287.00
2023-01-29T06:34:44.708Z,101290.13
2023-01-29T06:36:47.639Z,101287.22
2023-01-29T06:38:49.667Z,101286.34
2023-01-29T06:40:52.252Z,101280.72
2023-01-29T06:43:00.253Z,101290.41
2023-01-29T06:45:03.373Z,101288.50
2023-01-29T06:47:17.220Z,101291.06
2023-01-29T06:49:19.126Z,101289.75
2023-01-29T06:51:23.121Z,101291.41
2023-01-29T06:53:27.105Z,101287.00
2023-01-29T06:55:34.178Z,101289.91
2023-01-29T06:57:36.140Z,101288.03
2023-01-29T06:59:37.981Z,101284.47
2023-01-29T07:01:44.554Z,101285.22
2023-01-29T07:03:51.116Z,101289.56
2023-01-29T07:05:59.138Z,101282.50
2023-01-29T07:08:09.074Z,101279.88
2023-01-29T07:10:12.117Z,101275.53
2023-01-29T07:12:14.212Z,101259.47
2023-01-29T07:14:16.145Z,101253.56
2023-01-29T07:16:19.406Z,101250.84
2023-01-29T07:18:21.632Z,101256.44
2023-01-29T07:20:28.602Z,101264.53
2023-01-29T07:22:31.599Z,101273.03
2023-01-29T07:24:39.075Z,101270.81
2023-01-29T07:26:42.708Z,101272.41
2023-01-29T07:28:44.600Z,101268.03
2023-01-29T07:30:47.640Z,101271.94
2023-01-29T07:32:51.555Z,101273.56
2023-01-29T07:34:54.532Z,101278.81
2023-01-29T07:36:57.085Z,101287.53
2023-01-29T07:39:00.923Z,101291.44
2023-01-29T07:41:03.875Z,101294.44
2023-01-29T07:43:07.989Z,101289.81
2023-01-29T07:45:11.862Z,101296.28
2023-01-29T07:47:15.214Z,101291.97
2023-01-29T07:49:28.118Z,101288.81
2023-01-29T07:51:31.873Z,101295.44
2023-01-29T07:53:34.117Z,101293.75
2023-01-29T07:55:37.033Z,101279.94
2023-01-29T07:57:39.019Z,101273.59
2023-01-29T07:59:43.324Z,101276.38
2023-01-29T08:01:53.469Z,101268.50
2023-01-29T08:04:08.732Z,101276.78
2023-01-29T08:06:10.787Z,101272.91
2023-01-29T08:08:15.191Z,101273.84
2023-01-29T08:10:17.457Z,101280.72
2023-01-29T08:12:20.562Z,101273.69
2023-01-29T08:14:25.651Z,101266.25
2023-01-29T08:16:28.496Z,101260.03
2023-01-29T08:18:31.775Z,101258.97
2023-01-29T08:20:33.756Z,101258.75
2023-01-29T08:22:35.639Z,101250.31
2023-01-29T08:24:59.850Z,101261.69
2023-01-29T08:27:02.124Z,101264.84
2023-01-29T08:29:05.223Z,101251.84
2023-01-29T08:31:14.508Z,101255.41
2023-01-29T08:33:38.973Z,101260.16
2023-01-29T08:35:42.686Z,101251.69
2023-01-29T08:38:04.460Z,101255.81
2023-01-29T08:40:07.305Z,101257.00
2023-01-29T08:42:19.155Z,101257.63
2023-01-29T08:44:24.547Z,101256.41
2023-01-29T08:46:26.513Z,101243.78
2023-01-29T08:48:31.105Z,101245.06
2023-01-29T08:50:35.143Z,101254.75
2023-01-29T08:52:37.118Z,101253.22
2023-01-29T08:54:39.166Z,101249.09
2023-01-29T08:56:41.103Z,101241.50
2023-01-29T08:58:45.222Z,101243.16
2023-01-29T09:00:48.290Z,101245.06
2023-01-29T09:02:51.135Z,101233.28
2023-01-29T09:04:56.110Z,101238.19
2023-01-29T09:07:00.096Z,101234.09
2023-01-29T09:09:12.115Z,101235.56
2023-01-29T09:11:14.019Z,101230.81
2023-01-29T09:13:15.970Z,101225.28
2023-01-29T09:15:18.514Z,101214.09
2023-01-29T09:17:21.708Z,101217.56
2023-01-29T09:19:26.758Z,101216.94
2023-01-29T09:21:28.735Z,101205.22
2023-01-29T09:23:34.745Z,101201.75
2023-01-29T09:25:37.779Z,101209.16
2023-01-29T09:27:39.919Z,101219.63
2023-01-29T09:29:43.299Z,101217.00
2023-01-29T09:31:46.305Z,101210.53
2023-01-29T09:33:58.445Z,101204.63
2023-01-29T09:36:19.475Z,101207.25
2023-01-29T09:38:22.361Z,101206.59
2023-01-29T09:40:29.416Z,101213.75
2023-01-29T09:42:50.967Z,101201.22
2023-01-29T09:45:18.026Z,101204.75
2023-01-29T09:47:25.950Z,101195.13
2023-01-29T09:49:38.011Z,101200.84
2023-01-29T09:51:50.131Z,101190.75
2023-01-29T09:54:19.945Z,101185.72
2023-01-29T09:56:29.136Z,101188.69
2023-01-29T09:59:00.477Z,101187.06
2023-01-29T10:01:07.961Z,101187.19
2023-01-29T10:03:43.994Z,101182.28
2023-01-29T10:06:11.565Z,101185.88
2023-01-29T10:08:35.797Z,101175.53
2023-01-29T10:11:00.541Z,101177.09
2023-01-29T10:13:15.045Z,101177.88
2023-01-29T10:15:52.763Z,101177.44
2023-01-29T10:18:05.213Z,101176.75
2023-01-29T10:20:33.998Z,101178.56
2023-01-29T10:23:13.637Z,101163.00
2023-01-29T10:25:21.490Z,101165.78
2023-01-29T10:27:38.912Z,101159.28
2023-01-29T10:29:44.073Z,101160.69
2023-01-29T10:32:05.050Z,101153.84
2023-01-29T10:34:19.520Z,101164.16
2023-01-29T10:36:49.664Z,101156.53
2023-01-29T10:39:00.836Z,101163.16
2023-01-29T10:41:24.105Z,101163.31
2023-01-29T10:44:05.481Z,101163.25
2023-01-29T10:46:30.303Z,101157.53
2023-01-29T10:48:42.392Z,101154.59
2023-01-29T10:51:30.459Z,101147.59
2023-01-29T10:53:32.562Z,101159.09
2023-01-29T10:55:57.215Z,101149.13
2023-01-29T10:57:59.140Z,101152.22
2023-01-29T11:00:24.666Z,101142.38
2023-01-29T11:02:34.285Z,101145.25
2023-01-29T11:04:37.560Z,101143.53
2023-01-29T11:06:44.306Z,101136.22
2023-01-29T11:09:19.430Z,101129.28
2023-01-29T11:11:27.989Z,101125.13
2023-01-29T11:13:36.933Z,101127.88
2023-01-29T11:15:38.905Z,101125.66
2023-01-29T11:18:02.790Z,101127.41
2023-01-29T11:20:26.738Z,101118.25
2023-01-29T11:22:53.477Z,101110.13
2023-01-29T11:25:22.015Z,101110.69
2023-01-29T11:27:29.812Z,101109.41
2023-01-29T11:29:48.489Z,101101.34
2023-01-29T11:31:50.701Z,101090.50
2023-01-29T11:34:19.891Z,101080.63
2023-01-29T11:36:36.345Z,101077.41
2023-01-29T11:38:47.227Z,101078.47
2023-01-29T11:41:07.128Z,101070.63
2023-01-29T11:43:21.076Z,101067.31
2023-01-29T11:45:32.545Z,101057.84
2023-01-29T11:47:35.049Z,101056.53
2023-01-29T11:49:41.148Z,101053.94
2023-01-29T11:51:55.811Z,101063.16
2023-01-29T11:54:03.518Z,101058.94
2023-01-29T11:56:23.203Z,101054.63
2023-01-29T11:58:35.148Z,101054.19
2023-01-29T12:00:41.482Z,101051.44
2023-01-29T12:02:47.435Z,101046.47
2023-01-29T12:04:51.738Z,101035.91
2023-01-29T12:06:55.434Z,101036.63
2023-01-29T12:09:00.415Z,101025.81
2023-01-29T12:11:38.878Z,101032.94
2023-01-29T12:13:54.623Z,101027.13
2023-01-29T12:16:11.052Z,101020.44
2023-01-29T12:18:43.828Z,101020.16
2023-01-29T12:20:53.332Z,101004.81
2023-01-29T12:23:24.654Z,101006.22
2023-01-29T12:26:07.675Z,101011.13
2023-01-29T12:28:27.195Z,101006.31
2023-01-29T12:31:09.360Z,101014.50
2023-01-29T12:33:52.002Z,101001.44
2023-01-29T12:36:20.936Z,101002.66
2023-01-29T12:38:24.389Z,101003.72
2023-01-29T12:40:59.249Z,100995.03
2023-01-29T12:43:12.852Z,100982.50
2023-01-29T12:45:21.580Z,100990.63
2023-01-29T12:47:50.152Z,100987.25
2023-01-29T12:50:05.933Z,100978.66
2023-01-29T12:52:31.751Z,100975.81
2023-01-29T12:54:42.696Z,100970.50
2023-01-29T12:56:53.765Z,100978.41
2023-01-29T12:59:00.956Z,100975.97
2023-01-29T13:01:14.927Z,100973.34
2023-01-29T13:03:29.929Z,100975.31
2023-01-29T13:05:47.302Z,100974.13
2023-01-29T13:07:58.581Z,100978.41
2023-01-29T13:10:10.232Z,100983.31
2023-01-29T13:12:17.252Z,100995.13
2023-01-29T13:15:01.069Z,100988.81
2023-01-29T13:17:26.003Z,100980.22
2023-01-29T13:19:46.345Z,100995.28
2023-01-29T13:21:51.424Z,100998.66
2023-01-29T13:24:04.173Z,100995.59
2023-01-29T13:26:23.904Z,101001.00
2023-01-29T13:28:28.497Z,100993.97
2023-01-29T13:30:38.713Z,100982.72
2023-01-29T13:32:41.941Z,100998.81
2023-01-29T13:34:48.144Z,100998.22
2023-01-29T13:37:04.416Z,100987.41
2023-01-29T13:39:09.264Z,100980.06
2023-01-29T13:41:37.078Z,100975.59
2023-01-29T13:43:43.143Z,100964.03
2023-01-29T13:45:55.023Z,100955.59
2023-01-29T13:48:25.969Z,100963.53
2023-01-29T13:50:39.925Z,100954.63
2023-01-29T13:53:02.502Z,100954.13
2023-01-29T13:55:10.161Z,100958.31
2023-01-29T13:57:36.590Z,100955.06
2023-01-29T14:00:02.435Z,100949.06
2023-01-29T14:02:21.626Z,100945.19
2023-01-29T14:04:27.182Z,100955.59
2023-01-29T14:07:00.778Z,100957.47
2023-01-29T14:09:03.225Z,100966.00
2023-01-29T14:11:17.658Z,100972.72
2023-01-29T14:13:22.145Z,100976.09
2023-01-29T14:15:29.059Z,100975.75
2023-01-29T14:17:41.245Z,100988.19
2023-01-29T14:20:02.421Z,100977.78
2023-01-29T14:22:27.993Z,100980.34
2023-01-29T14:24:42.626Z,100987.78
2023-01-29T14:26:56.640Z,100987.31
2023-01-29T14:32:01.770Z,100966.09
2023-01-29T14:32:42.540Z,100976.25
2023-01-29T14:34:27.654Z,100958.22
2023-01-29T14:36:45.398Z,100959.84
2023-01-29T14:38:56.793Z,100962.06
2023-01-29T14:41:24.769Z,100958.72
2023-01-29T14:43:26.753Z,100948.50
2023-01-29T14:45:42.420Z,100942.06
2023-01-29T14:47:54.565Z,100943.72
2023-01-29T14:50:32.070Z,100931.34
2023-01-29T14:52:42.629Z,100938.53
2023-01-29T14:54:53.943Z,100943.75
2023-01-29T14:57:02.837Z,100948.00
2023-01-29T14:59:39.798Z,100958.00
2023-01-29T15:01:50.363Z,100964.47
2023-01-29T15:04:14.297Z,100966.63
2023-01-29T15:06:44.012Z,100968.78
2023-01-29T15:09:13.394Z,100965.69
2023-01-29T15:11:34.654Z,100959.94
2023-01-29T15:13:55.887Z,100957.66
2023-01-29T15:16:09.680Z,100958.22
2023-01-29T15:18:43.338Z,100950.91
2023-01-29T15:21:04.722Z,100952.00
2023-01-29T15:23:27.958Z,100945.75
2023-01-29T15:25:50.351Z,100940.69
2023-01-29T15:27:57.438Z,100926.91
2023-01-29T15:30:35.066Z,100918.72
2023-01-29T15:32:40.047Z,100919.56
2023-01-29T15:34:48.174Z,100916.59
2023-01-29T15:36:51.545Z,100918.16
2023-01-29T15:39:20.238Z,100905.38
2023-01-29T15:41:28.908Z,100910.06
2023-01-29T15:43:36.596Z,100923.66
2023-01-29T15:45:41.707Z,100915.28
2023-01-29T15:47:44.948Z,100914.41
2023-01-29T15:49:57.493Z,100911.88
2023-01-29T15:52:06.641Z,100902.47
2023-01-29T15:54:15.987Z,100898.06
2023-01-29T15:56:24.328Z,100890.00
2023-01-29T15:58:33.370Z,100889.84
2023-01-29T16:00:56.384Z,100896.19
2023-01-29T16:03:01.735Z,100888.19
2023-01-29T16:05:10.905Z,100890.38
2023-01-29T16:07:18.811Z,100892.63
2023-01-29T16:09:27.609Z,100888.50
2023-01-29T16:11:30.194Z,100881.88
2023-01-29T16:13:39.936Z,100889.22
2023-01-29T16:15:58.625Z,100887.22
2023-01-29T16:18:05.475Z,100892.88
2023-01-29T16:20:36.222Z,100897.13
2023-01-29T16:23:05.003Z,100899.22
2023-01-29T16:25:18.560Z,100897.25
2023-01-29T16:27:26.154Z,100900.34
2023-01-29T16:29:42.439Z,100901.72
2023-01-29T16:32:01.316Z,100903.56
2023-01-29T16:34:15.834Z,100906.16
2023-01-29T16:36:24.049Z,100906.59
2023-01-29T16:38:36.888Z,100913.22
2023-01-29T16:40:41.387Z,100904.97
2023-01-29T16:42:48.461Z,100901.50
2023-01-29T16:44:59.845Z,100908.34
2023-01-29T16:47:27.453Z,100907.75
2023-01-29T16:49:42.477Z,100902.59
2023-01-29T16:51:50.504Z,100905.94
2023-01-29T16:53:57.364Z,100899.56
2023-01-29T16:56:11.228Z,100902.28
2023-01-29T16:58:19.125Z,100894.22
2023-01-29T17:00:29.244Z,100896.72
2023-01-29T17:02:38.441Z,100891.78
2023-01-29T17:04:42.195Z,100888.06
2023-01-29T17:06:49.860Z,100888.81
2023-01-29T17:09:04.223Z,100886.78
2023-01-29T17:11:38.544Z,100887.94
2023-01-29T17:13:46.239Z,100872.25
2023-01-29T17:15:49.857Z,100865.47
2023-01-29T17:17:55.147Z,100862.31
2023-01-29T17:19:59.389Z,100862.59
2023-01-29T17:22:15.318Z,100864.09
2023-01-29T17:24:27.259Z,100859.47
2023-01-29T17:26:36.147Z,100861.94
2023-01-29T17:28:40.132Z,100863.56
2023-01-29T17:31:05.534Z,100865.34
2023-01-29T17:33:24.177Z,100858.09
2023-01-29T17:35:29.524Z,100848.63
2023-01-29T17:37:32.223Z,100840.19
2023-01-29T17:39:37.714Z,100837.66
2023-01-29T17:41:41.553Z,100837.84
2023-01-29T17:43:49.351Z,100832.41
2023-01-29T17:45:55.562Z,100824.13
2023-01-29T17:47:59.050Z,100820.63
2023-01-29T17:50:01.959Z,100811.81
2023-01-29T17:52:05.177Z,100804.88
2023-01-29T17:54:11.178Z,100804.69
2023-01-29T17:56:19.649Z,100797.81
2023-01-29T17:58:42.593Z,100800.34
2023-01-29T18:00:47.720Z,100794.44
2023-01-29T18:02:54.173Z,100795.22
2023-01-29T18:05:06.932Z,100785.06
2023-01-29T18:07:12.574Z,100770.72
2023-01-29T18:09:26.461Z,100773.34
2023-01-29T18:11:37.123Z,100767.38
2023-01-29T18:13:42.573Z,100756.38
2023-01-29T18:15:44.954Z,100751.19
2023-01-29T18:17:53.572Z,100752.50
2023-01-29T18:19:58.936Z,100761.03
2023-01-29T18:22:02.994Z,100768.13
2023-01-29T18:24:06.881Z,100771.63
2023-01-29T18:26:13.160Z,100767.16
2023-01-29T18:28:20.011Z,100761.31
2023-01-29T18:30:42.746Z,100765.53
2023-01-29T18:32:47.483Z,100755.88
2023-01-29T18:35:07.632Z,100753.19
2023-01-29T18:37:13.049Z,100757.78
2023-01-29T18:39:17.049Z,100762.28
2023-01-29T18:41:25.453Z,100748.44
2023-01-29T18:43:42.532Z,100748.19
2023-01-29T18:45:51.776Z,100744.94
2023-01-29T18:48:02.404Z,100745.75
2023-01-29T18:50:16.332Z,100753.28
2023-01-29T18:52:28.895Z,100750.97
2023-01-29T18:54:40.112Z,100745.88
2023-01-29T18:57:13.827Z,100736.19
2023-01-29T18:59:13.890Z,100745.69
2023-01-29T19:01:18.398Z,100742.38
2023-01-29T19:03:22.360Z,100735.13
2023-01-29T19:05:38.241Z,100738.25
2023-01-29T19:07:44.494Z,100735.56
2023-01-29T19:09:54.026Z,100734.91
2023-01-29T19:11:58.516Z,100735.09
2023-01-29T19:14:09.388Z,100734.06
2023-01-29T19:16:14.154Z,100737.47
2023-01-29T19:18:18.381Z,100738.84
2023-01-29T19:20:22.451Z,100742.66
2023-01-29T19:22:35.187Z,100739.16
2023-01-29T19:24:40.783Z,100731.53
2023-01-29T19:26:54.244Z,100722.66
2023-01-29T19:28:57.555Z,100723.19
2023-01-29T19:31:01.895Z,100721.09
2023-01-29T19:33:13.890Z,100712.22
2023-01-29T19:35:19.836Z,100714.72
2023-01-29T19:37:22.749Z,100710.84
2023-01-29T19:39:33.172Z,100716.34
2023-01-29T19:41:35.657Z,100708.13
2023-01-29T19:43:42.169Z,100705.41
2023-01-29T19:45:50.662Z,100707.19
2023-01-29T19:47:59.946Z,100702.63
2023-01-29T19:50:05.192Z,100695.38
2023-01-29T19:52:35.897Z,100695.84
2023-01-29T19:54:48.976Z,100696.13
2023-01-29T19:56:51.429Z,100685.13
2023-01-29T19:58:58.599Z,100692.63
2023-01-29T20:01:06.027Z,100683.53
2023-01-29T20:03:13.962Z,100679.34
2023-01-29T20:05:19.294Z,100682.22
2023-01-29T20:07:26.738Z,100675.78
2023-01-29T20:09:31.725Z,100673.03
2023-01-29T20:11:39.137Z,100664.88
2023-01-29T20:13:42.228Z,100666.47
2023-01-29T20:15:51.010Z,100652.06
2023-01-29T20:17:55.112Z,100649.47
2023-01-29T20:19:57.848Z,100642.81
2023-01-29T20:22:01.469Z,100641.16
2023-01-29T20:24:05.978Z,100643.50
2023-01-29T20:26:12.517Z,100640.91
2023-01-29T20:28:17.970Z,100639.94
2023-01-29T20:30:23.498Z,100635.00
2023-01-29T20:32:36.074Z,100627.44
2023-01-29T20:34:40.648Z,100629.19
2023-01-29T20:36:43.614Z,100623.19
2023-01-29T20:38:47.505Z,100607.84
2023-01-29T20:40:55.232Z,100614.94
2023-01-29T20:42:58.211Z,100611.41
2023-01-29T20:45:02.210Z,100596.25
2023-01-29T20:47:08.111Z,100594.56
2023-01-29T20:49:20.130Z,100580.97
2023-01-29T20:51:24.493Z,100591.81
2023-01-29T20:53:34.032Z,100582.84
2023-01-29T20:55:39.467Z,100580.22
2023-01-29T20:58:06.656Z,100582.81
2023-01-29T21:00:15.455Z,100574.38
2023-01-29T21:02:20.131Z,100573.31
2023-01-29T21:04:33.907Z,100577.72
2023-01-29T21:06:36.780Z,100574.53
2023-01-29T21:08:42.563Z,100570.97
2023-01-29T21:10:53.718Z,100581.16
2023-01-29T21:12:58.250Z,100572.75
2023-01-29T21:15:01.255Z,100572.78
2023-01-29T21:17:05.337Z,100583.59
2023-01-29T21:19:07.851Z,100574.34
2023-01-29T21:21:16.894Z,100572.59
2023-01-29T21:23:19.564Z,100576.97
2023-01-29T21:25:31.505Z,100576.28
2023-01-29T21:27:38.212Z,100570.84
2023-01-29T21:29:46.079Z,100569.34
2023-01-29T21:31:53.468Z,100567.41
2023-01-29T21:33:57.191Z,100568.63
2023-01-29T21:36:00.221Z,100567.19
2023-01-29T21:38:06.553Z,100560.41
2023-01-29T21:40:14.375Z,100567.13
2023-01-29T21:42:35.842Z,100559.47
2023-01-29T21:44:39.402Z,100557.81
2023-01-29T21:46:42.727Z,100555.28
2023-01-29T21:48:52.840Z,100552.69
2023-01-29T21:50:55.155Z,100551.69
2023-01-29T21:53:06.436Z,100543.22
2023-01-29T21:55:09.003Z,100544.97
2023-01-29T21:57:15.264Z,100534.81
2023-01-29T21:59:21.895Z,100534.91
2023-01-29T22:01:37.272Z,100530.50
2023-01-29T22:03:53.538Z,100514.47
2023-01-29T22:05:55.590Z,100522.19
2023-01-29T22:07:57.634Z,100519.66
2023-01-29T22:10:00.735Z,100516.16
2023-01-29T22:12:06.996Z,100516.31
2023-01-29T22:14:18.490Z,100510.28
2023-01-29T22:16:20.524Z,100509.72
2023-01-29T22:18:29.200Z,100502.94
2023-01-29T22:20:33.183Z,100502.84
2023-01-29T22:22:37.133Z,100494.63
2023-01-29T22:24:47.224Z,100489.41
2023-01-29T22:26:56.825Z,100488.59
2023-01-29T22:28:59.720Z,100478.44
2023-01-29T22:31:03.033Z,100469.22
2023-01-29T22:33:04.952Z,100474.28
2023-01-29T22:35:11.289Z,100473.44
2023-01-29T22:37:14.243Z,100469.22
2023-01-29T22:39:16.226Z,100462.47
2023-01-29T22:41:28.632Z,100459.16
2023-01-29T22:43:30.747Z,100447.28
2023-01-29T22:45:39.698Z,100433.56
2023-01-29T22:47:42.649Z,100431.16
2023-01-29T22:49:49.258Z,100423.63
2023-01-29T22:52:10.737Z,100417.84
2023-01-29T22:54:15.663Z,100415.25
2023-01-29T22:56:19.559Z,100399.13
2023-01-29T22:58:24.601Z,100396.75
2023-01-29T23:00:26.925Z,100387.31
2023-01-29T23:02:34.022Z,100388.06
2023-01-29T23:04:38.229Z,100379.84
2023-01-29T23:06:43.222Z,100369.59
2023-01-29T23:08:51.860Z,100366.28
2023-01-29T23:10:54.853Z,100364.59
2023-01-29T23:13:05.602Z,100367.94
2023-01-29T23:15:08.203Z,100363.66
2023-01-29T23:17:10.465Z,100358.81
2023-01-29T23:19:15.657Z,100357.75
2023-01-29T23:21:19.697Z,100351.06
2023-01-29T23:23:22.726Z,100351.97
2023-01-29T23:25:46.258Z,100346.91
2023-01-29T23:28:01.160Z,100344.19
2023-01-29T23:30:08.491Z,100342.53
2023-01-29T23:32:12.335Z,100342.59
2023-01-29T23:34:16.418Z,100339.06
2023-01-29T23:36:42.723Z,100335.69
2023-01-29T23:38:44.632Z,100336.66
2023-01-29T23:40:47.626Z,100319.78
2023-01-29T23:42:50.575Z,100319.75
2023-01-29T23:44:52.546Z,100316.47
2023-01-29T23:46:54.515Z,100314.81
2023-01-29T23:48:56.556Z,100314.75
2023-01-29T23:50:58.438Z,100310.41
2023-01-29T23:53:00.368Z,100311.28
2023-01-29T23:55:06.911Z,100314.75
2023-01-29T23:57:11.976Z,100307.13
2023-01-29T23:59:15.284Z,100312.25
